sensor_id;sensor_type;location;lat;lon;timestamp;pressure;altitude;pressure_sealevel;temperature;humidity
77216;BME280;66210;53.282;9.864;2024-01-07T00:02:08;101380.44;;;-2.37;96.15
77216;BME280;66210;53.282;9.864;2024-01-07T00:04:36;101374.81;;;-2.43;95.71
77216;BME280;66210;53.282;9.864;2024-01-07T00:07:04;101385.25;;;-2.39;95.29
77216;BME280;66210;53.282;9.864;2024-01-07T00:09:31;101391.50;;;-2.42;94.80
77216;BME280;66210;53.282;9.864;2024-01-07T00:11:57;101396.31;;;-2.44;94.68
77216;BME280;66210;53.282;9.864;2024-01-07T00:14:24;101382.09;;;-2.45;95.00
77216;BME280;66210;53.282;9.864;2024-01-07T00:16:50;101381.41;;;-2.44;95.13
77216;BME280;66210;53.282;9.864;2024-01-07T00:19:17;101384.44;;;-2.46;94.13
77216;BME280;66210;53.282;9.864;2024-01-07T00:21:44;101398.63;;;-2.45;94.00
77216;BME280;66210;53.282;9.864;2024-01-07T00:24:10;101388.38;;;-2.48;94.17
77216;BME280;66210;53.282;9.864;2024-01-07T00:26:37;101390.88;;;-2.56;93.46
77216;BME280;66210;53.282;9.864;2024-01-07T00:29:04;101396.78;;;-2.55;93.68
77216;BME280;66210;53.282;9.864;2024-01-07T00:31:30;101405.44;;;-2.52;92.67
77216;BME280;66210;53.282;9.864;2024-01-07T00:33:57;101416.06;;;-2.45;93.52
77216;BME280;66210;53.282;9.864;2024-01-07T00:36:24;101407.84;;;-2.44;93.49
77216;BME280;66210;53.282;9.864;2024-01-07T00:38:51;101413.38;;;-2.47;92.50
77216;BME280;66210;53.282;9.864;2024-01-07T00:41:17;101409.69;;;-2.51;92.50
77216;BME280;66210;53.282;9.864;2024-01-07T00:43:44;101397.66;;;-2.55;92.74
77216;BME280;66210;53.282;9.864;2024-01-07T00:46:11;101421.97;;;-2.52;92.10
77216;BME280;66210;53.282;9.864;2024-01-07T00:48:37;101426.75;;;-2.46;92.60
77216;BME280;66210;53.282;9.864;2024-01-07T00:51:04;101423.69;;;-2.44;92.85
77216;BME280;66210;53.282;9.864;2024-01-07T00:53:32;101433.16;;;-2.48;92.06
77216;BME280;66210;53.282;9.864;2024-01-07T00:55:59;101441.31;;;-2.49;91.11
77216;BME280;66210;53.282;9.864;2024-01-07T00:58:25;101429.09;;;-2.55;91.78
77216;BME280;66210;53.282;9.864;2024-01-07T01:00:52;101442.44;;;-2.55;90.43
77216;BME280;66210;53.282;9.864;2024-01-07T01:03:20;101445.97;;;-2.53;91.06
77216;BME280;66210;53.282;9.864;2024-01-07T01:05:47;101457.84;;;-2.50;91.19
77216;BME280;66210;53.282;9.864;2024-01-07T01:08:16;101454.00;;;-2.55;91.11
77216;BME280;66210;53.282;9.864;2024-01-07T01:10:42;101443.53;;;-2.60;91.19
77216;BME280;66210;53.282;9.864;2024-01-07T01:13:09;101447.97;;;-2.57;91.05
77216;BME280;66210;53.282;9.864;2024-01-07T01:15:36;101462.50;;;-2.53;90.67
77216;BME280;66210;53.282;9.864;2024-01-07T01:18:03;101465.00;;;-2.53;90.81
77216;BME280;66210;53.282;9.864;2024-01-07T01:20:30;101453.31;;;-2.61;90.98
77216;BME280;66210;53.282;9.864;2024-01-07T01:22:57;101468.91;;;-2.55;90.34
77216;BME280;66210;53.282;9.864;2024-01-07T01:25:24;101471.03;;;-2.51;90.87
77216;BME280;66210;53.282;9.864;2024-01-07T01:27:50;101446.72;;;-2.61;90.63
77216;BME280;66210;53.282;9.864;2024-01-07T01:30:17;101458.47;;;-2.60;90.58
77216;BME280;66210;53.282;9.864;2024-01-07T01:32:44;101477.38;;;-2.46;90.67
77216;BME280;66210;53.282;9.864;2024-01-07T01:35:11;101476.31;;;-2.48;90.76
77216;BME280;66210;53.282;9.864;2024-01-07T01:37:38;101478.06;;;-2.47;90.34
77216;BME280;66210;53.282;9.864;2024-01-07T01:40:05;101486.09;;;-2.49;90.33
77216;BME280;66210;53.282;9.864;2024-01-07T01:42:32;101466.47;;;-2.62;90.79
77216;BME280;66210;53.282;9.864;2024-01-07T01:44:58;101494.13;;;-2.52;89.80
77216;BME280;66210;53.282;9.864;2024-01-07T01:47:29;101502.97;;;-2.47;90.67
77216;BME280;66210;53.282;9.864;2024-01-07T01:49:56;101503.88;;;-2.54;89.85
77216;BME280;66210;53.282;9.864;2024-01-07T01:52:24;101499.47;;;-2.56;90.37
77216;BME280;66210;53.282;9.864;2024-01-07T01:54:51;101501.06;;;-2.57;90.26
77216;BME280;66210;53.282;9.864;2024-01-07T01:57:20;101507.09;;;-2.55;90.74
77216;BME280;66210;53.282;9.864;2024-01-07T01:59:49;101527.69;;;-2.48;90.88
77216;BME280;66210;53.282;9.864;2024-01-07T02:02:16;101519.91;;;-2.59;90.63
77216;BME280;66210;53.282;9.864;2024-01-07T02:04:43;101521.84;;;-2.56;90.74
77216;BME280;66210;53.282;9.864;2024-01-07T02:07:10;101524.19;;;-2.58;90.44
77216;BME280;66210;53.282;9.864;2024-01-07T02:09:37;101516.22;;;-2.62;90.65
77216;BME280;66210;53.282;9.864;2024-01-07T02:12:04;101514.94;;;-2.59;90.30
77216;BME280;66210;53.282;9.864;2024-01-07T02:14:31;101530.00;;;-2.50;90.58
77216;BME280;66210;53.282;9.864;2024-01-07T02:16:59;101530.88;;;-2.49;90.75
77216;BME280;66210;53.282;9.864;2024-01-07T02:19:25;101516.38;;;-2.61;90.54
77216;BME280;66210;53.282;9.864;2024-01-07T02:21:52;101540.84;;;-2.49;90.12
77216;BME280;66210;53.282;9.864;2024-01-07T02:24:19;101525.44;;;-2.61;89.90
77216;BME280;66210;53.282;9.864;2024-01-07T02:26:46;101528.81;;;-2.61;90.07
77216;BME280;66210;53.282;9.864;2024-01-07T02:29:13;101540.69;;;-2.58;90.30
77216;BME280;66210;53.282;9.864;2024-01-07T02:31:39;101537.66;;;-2.56;90.48
77216;BME280;66210;53.282;9.864;2024-01-07T02:34:09;101540.56;;;-2.60;90.14
77216;BME280;66210;53.282;9.864;2024-01-07T02:36:36;101538.06;;;-2.60;90.52
77216;BME280;66210;53.282;9.864;2024-01-07T02:39:03;101536.13;;;-2.62;90.53
77216;BME280;66210;53.282;9.864;2024-01-07T02:41:30;101525.34;;;-2.77;90.43
77216;BME280;66210;53.282;9.864;2024-01-07T02:43:56;101555.13;;;-2.63;90.42
77216;BME280;66210;53.282;9.864;2024-01-07T02:46:24;101561.16;;;-2.61;90.32
77216;BME280;66210;53.282;9.864;2024-01-07T02:48:50;101560.28;;;-2.61;90.23
77216;BME280;66210;53.282;9.864;2024-01-07T02:51:17;101512.81;;;-2.93;90.32
77216;BME280;66210;53.282;9.864;2024-01-07T02:53:44;101531.56;;;-2.81;90.35
77216;BME280;66210;53.282;9.864;2024-01-07T02:56:11;101565.25;;;-2.61;90.57
77216;BME280;66210;53.282;9.864;2024-01-07T02:58:38;101509.09;;;-2.97;90.33
77216;BME280;66210;53.282;9.864;2024-01-07T03:01:08;101577.88;;;-2.67;90.53
77216;BME280;66210;53.282;9.864;2024-01-07T03:03:36;101574.34;;;-2.69;90.62
77216;BME280;66210;53.282;9.864;2024-01-07T03:06:03;101553.06;;;-2.81;90.83
77216;BME280;66210;53.282;9.864;2024-01-07T03:08:31;101579.47;;;-2.67;91.04
77216;BME280;66210;53.282;9.864;2024-01-07T03:10:57;101561.25;;;-2.82;90.85
77216;BME280;66210;53.282;9.864;2024-01-07T03:13:24;101593.34;;;-2.69;91.08
77216;BME280;66210;53.282;9.864;2024-01-07T03:15:51;101589.97;;;-2.70;91.16
77216;BME280;66210;53.282;9.864;2024-01-07T03:18:18;101591.06;;;-2.75;91.32
77216;BME280;66210;53.282;9.864;2024-01-07T03:20:45;101572.63;;;-2.84;91.54
77216;BME280;66210;53.282;9.864;2024-01-07T03:23:11;101590.00;;;-2.77;91.24
77216;BME280;66210;53.282;9.864;2024-01-07T03:25:38;101597.47;;;-2.77;91.27
77216;BME280;66210;53.282;9.864;2024-01-07T03:28:05;101596.75;;;-2.76;91.29
77216;BME280;66210;53.282;9.864;2024-01-07T03:30:32;101584.69;;;-2.87;91.41
77216;BME280;66210;53.282;9.864;2024-01-07T03:32:59;101596.41;;;-2.79;91.71
77216;BME280;66210;53.282;9.864;2024-01-07T03:35:26;101587.00;;;-2.82;91.75
77216;BME280;66210;53.282;9.864;2024-01-07T03:37:52;101593.97;;;-2.94;91.81
77216;BME280;66210;53.282;9.864;2024-01-07T03:40:19;101608.50;;;-2.89;91.48
77216;BME280;66210;53.282;9.864;2024-01-07T03:42:46;101614.22;;;-2.90;91.59
77216;BME280;66210;53.282;9.864;2024-01-07T03:45:13;101614.03;;;-2.92;91.74
77216;BME280;66210;53.282;9.864;2024-01-07T03:47:39;101617.94;;;-2.94;91.86
77216;BME280;66210;53.282;9.864;2024-01-07T03:50:06;101617.94;;;-2.94;91.69
77216;BME280;66210;53.282;9.864;2024-01-07T03:52:33;101619.34;;;-2.96;91.70
77216;BME280;66210;53.282;9.864;2024-01-07T03:55:02;101623.44;;;-2.97;91.74
77216;BME280;66210;53.282;9.864;2024-01-07T03:57:29;101616.75;;;-3.05;91.53
77216;BME280;66210;53.282;9.864;2024-01-07T03:59:56;101624.19;;;-3.05;91.59
77216;BME280;66210;53.282;9.864;2024-01-07T04:02:22;101637.31;;;-2.99;91.78
77216;BME280;66210;53.282;9.864;2024-01-07T04:04:49;101615.50;;;-3.08;91.60
77216;BME280;66210;53.282;9.864;2024-01-07T04:07:16;101645.13;;;-2.96;91.71
77216;BME280;66210;53.282;9.864;2024-01-07T04:09:43;101643.00;;;-3.00;92.15
77216;BME280;66210;53.282;9.864;2024-01-07T04:12:11;101626.13;;;-3.09;91.99
77216;BME280;66210;53.282;9.864;2024-01-07T04:14:37;101653.66;;;-2.94;91.95
77216;BME280;66210;53.282;9.864;2024-01-07T04:17:04;101647.78;;;-2.94;92.18
77216;BME280;66210;53.282;9.864;2024-01-07T04:19:31;101660.91;;;-2.88;92.01
77216;BME280;66210;53.282;9.864;2024-01-07T04:21:58;101661.63;;;-2.89;91.89
77216;BME280;66210;53.282;9.864;2024-01-07T04:24:25;101656.66;;;-2.89;91.88
77216;BME280;66210;53.282;9.864;2024-01-07T04:26:52;101649.91;;;-2.97;91.88
77216;BME280;66210;53.282;9.864;2024-01-07T04:29:19;101657.03;;;-2.93;91.93
77216;BME280;66210;53.282;9.864;2024-01-07T04:31:45;101654.69;;;-2.92;91.78
77216;BME280;66210;53.282;9.864;2024-01-07T04:34:12;101675.66;;;-2.82;92.08
77216;BME280;66210;53.282;9.864;2024-01-07T04:36:39;101665.53;;;-2.91;91.93
77216;BME280;66210;53.282;9.864;2024-01-07T04:39:06;101668.88;;;-2.83;92.15
77216;BME280;66210;53.282;9.864;2024-01-07T04:41:33;101680.09;;;-2.80;92.25
77216;BME280;66210;53.282;9.864;2024-01-07T04:44:00;101641.41;;;-2.99;92.00
77216;BME280;66210;53.282;9.864;2024-01-07T04:46:26;101676.31;;;-2.76;91.92
77216;BME280;66210;53.282;9.864;2024-01-07T04:48:53;101664.28;;;-2.87;92.04
77216;BME280;66210;53.282;9.864;2024-01-07T04:51:20;101647.78;;;-2.94;91.91
77216;BME280;66210;53.282;9.864;2024-01-07T04:53:47;101685.91;;;-2.72;92.18
77216;BME280;66210;53.282;9.864;2024-01-07T04:56:14;101679.34;;;-2.79;92.21
77216;BME280;66210;53.282;9.864;2024-01-07T04:58:41;101681.81;;;-2.72;92.30
77216;BME280;66210;53.282;9.864;2024-01-07T05:01:08;101691.59;;;-2.66;92.31
77216;BME280;66210;53.282;9.864;2024-01-07T05:03:35;101684.13;;;-2.66;92.44
77216;BME280;66210;53.282;9.864;2024-01-07T05:06:02;101693.72;;;-2.62;92.45
77216;BME280;66210;53.282;9.864;2024-01-07T05:08:29;101674.75;;;-2.76;92.27
77216;BME280;66210;53.282;9.864;2024-01-07T05:10:56;101701.34;;;-2.60;92.48
77216;BME280;66210;53.282;9.864;2024-01-07T05:13:22;101704.88;;;-2.58;92.58
77216;BME280;66210;53.282;9.864;2024-01-07T05:15:49;101705.06;;;-2.57;92.52
77216;BME280;66210;53.282;9.864;2024-01-07T05:18:21;101700.09;;;-2.57;92.47
77216;BME280;66210;53.282;9.864;2024-01-07T05:20:50;101698.84;;;-2.53;92.80
77216;BME280;66210;53.282;9.864;2024-01-07T05:23:17;101716.94;;;-2.47;92.54
77216;BME280;66210;53.282;9.864;2024-01-07T05:25:45;101719.94;;;-2.42;92.63
77216;BME280;66210;53.282;9.864;2024-01-07T05:28:12;101721.94;;;-2.40;92.73
77216;BME280;66210;53.282;9.864;2024-01-07T05:30:41;101711.41;;;-2.44;92.49
77216;BME280;66210;53.282;9.864;2024-01-07T05:33:08;101724.22;;;-2.34;92.42
77216;BME280;66210;53.282;9.864;2024-01-07T05:35:35;101729.91;;;-2.35;92.42
77216;BME280;66210;53.282;9.864;2024-01-07T05:38:02;101713.22;;;-2.43;92.58
77216;BME280;66210;53.282;9.864;2024-01-07T05:40:31;101735.03;;;-2.34;92.36
77216;BME280;66210;53.282;9.864;2024-01-07T05:42:58;101716.06;;;-2.47;92.15
77216;BME280;66210;53.282;9.864;2024-01-07T05:45:25;101735.41;;;-2.38;92.13
77216;BME280;66210;53.282;9.864;2024-01-07T05:47:52;101740.56;;;-2.36;92.35
77216;BME280;66210;53.282;9.864;2024-01-07T05:50:18;101722.09;;;-2.45;92.45
77216;BME280;66210;53.282;9.864;2024-01-07T05:52:47;101724.25;;;-2.48;92.35
77216;BME280;66210;53.282;9.864;2024-01-07T05:55:13;101743.22;;;-2.35;92.59
77216;BME280;66210;53.282;9.864;2024-01-07T05:57:40;101731.50;;;-2.43;92.54
77216;BME280;66210;53.282;9.864;2024-01-07T06:00:08;101754.06;;;-2.34;92.27
77216;BME280;66210;53.282;9.864;2024-01-07T06:02:34;101752.31;;;-2.35;92.39
77216;BME280;66210;53.282;9.864;2024-01-07T06:05:02;101760.66;;;-2.35;92.51
77216;BME280;66210;53.282;9.864;2024-01-07T06:07:29;101761.53;;;-2.34;92.59
77216;BME280;66210;53.282;9.864;2024-01-07T06:09:56;101766.69;;;-2.33;92.43
77216;BME280;66210;53.282;9.864;2024-01-07T06:12:23;101759.22;;;-2.33;92.35
77216;BME280;66210;53.282;9.864;2024-01-07T06:14:50;101775.22;;;-2.31;92.50
77216;BME280;66210;53.282;9.864;2024-01-07T06:17:17;101768.81;;;-2.28;92.51
77216;BME280;66210;53.282;9.864;2024-01-07T06:19:43;101756.91;;;-2.38;92.65
77216;BME280;66210;53.282;9.864;2024-01-07T06:22:10;101771.47;;;-2.27;92.59
77216;BME280;66210;53.282;9.864;2024-01-07T06:24:36;101785.16;;;-2.23;92.76
77216;BME280;66210;53.282;9.864;2024-01-07T06:27:03;101778.75;;;-2.21;92.59
77216;BME280;66210;53.282;9.864;2024-01-07T06:29:30;101775.03;;;-2.25;92.52
77216;BME280;66210;53.282;9.864;2024-01-07T06:31:57;101784.81;;;-2.19;92.73
77216;BME280;66210;53.282;9.864;2024-01-07T06:34:24;101773.63;;;-2.30;92.66
77216;BME280;66210;53.282;9.864;2024-01-07T06:36:50;101771.31;;;-2.28;92.42
77216;BME280;66210;53.282;9.864;2024-01-07T06:39:17;101790.84;;;-2.17;92.34
77216;BME280;66210;53.282;9.864;2024-01-07T06:41:44;101797.03;;;-2.14;92.57
77216;BME280;66210;53.282;9.864;2024-01-07T06:44:10;101795.63;;;-2.12;92.66
77216;BME280;66210;53.282;9.864;2024-01-07T06:46:37;101802.53;;;-2.09;92.77
77216;BME280;66210;53.282;9.864;2024-01-07T06:49:03;101778.91;;;-2.20;92.44
77216;BME280;66210;53.282;9.864;2024-01-07T06:51:30;101800.22;;;-2.07;92.39
77216;BME280;66210;53.282;9.864;2024-01-07T06:53:56;101797.94;;;-2.06;92.71
77216;BME280;66210;53.282;9.864;2024-01-07T06:56:23;101801.28;;;-2.05;92.59
77216;BME280;66210;53.282;9.864;2024-01-07T06:58:50;101791.88;;;-2.08;92.63
77216;BME280;66210;53.282;9.864;2024-01-07T07:01:21;101810.88;;;-2.01;92.79
77216;BME280;66210;53.282;9.864;2024-01-07T07:03:50;101812.84;;;-1.99;92.79
77216;BME280;66210;53.282;9.864;2024-01-07T07:06:16;101807.84;;;-1.99;92.80
77216;BME280;66210;53.282;9.864;2024-01-07T07:08:43;101814.03;;;-1.95;92.69
77216;BME280;66210;53.282;9.864;2024-01-07T07:11:10;101822.59;;;-1.93;92.71
77216;BME280;66210;53.282;9.864;2024-01-07T07:13:36;101780.34;;;-2.15;93.04
77216;BME280;66210;53.282;9.864;2024-01-07T07:16:05;101806.59;;;-2.02;92.67
77216;BME280;66210;53.282;9.864;2024-01-07T07:18:31;101820.81;;;-1.94;92.90
77216;BME280;66210;53.282;9.864;2024-01-07T07:20:59;101822.44;;;-1.95;93.06
77216;BME280;66210;53.282;9.864;2024-01-07T07:23:26;101826.50;;;-1.95;92.87
77216;BME280;66210;53.282;9.864;2024-01-07T07:25:52;101846.59;;;-1.86;92.79
77216;BME280;66210;53.282;9.864;2024-01-07T07:28:19;101849.25;;;-1.85;92.64
77216;BME280;66210;53.282;9.864;2024-01-07T07:30:45;101843.41;;;-1.93;92.81
77216;BME280;66210;53.282;9.864;2024-01-07T07:33:17;101861.16;;;-1.82;92.49
77216;BME280;66210;53.282;9.864;2024-01-07T07:35:44;101837.56;;;-2.00;92.16
77216;BME280;66210;53.282;9.864;2024-01-07T07:38:10;101845.41;;;-1.97;92.04
77216;BME280;66210;53.282;9.864;2024-01-07T07:40:37;101872.94;;;-1.81;92.27
77216;BME280;66210;53.282;9.864;2024-01-07T07:43:04;101843.25;;;-1.94;92.11
77216;BME280;66210;53.282;9.864;2024-01-07T07:45:30;101878.25;;;-1.78;92.41
77216;BME280;66210;53.282;9.864;2024-01-07T07:47:57;101878.97;;;-1.79;92.25
77216;BME280;66210;53.282;9.864;2024-01-07T07:50:23;101878.97;;;-1.79;92.38
77216;BME280;66210;53.282;9.864;2024-01-07T07:52:50;101852.31;;;-1.95;92.27
77216;BME280;66210;53.282;9.864;2024-01-07T07:55:17;101876.47;;;-1.79;92.29
77216;BME280;66210;53.282;9.864;2024-01-07T07:57:44;101866.16;;;-1.90;92.33
77216;BME280;66210;53.282;9.864;2024-01-07T08:00:11;101882.16;;;-1.80;92.25
77216;BME280;66210;53.282;9.864;2024-01-07T08:02:42;101887.88;;;-1.81;91.94
77216;BME280;66210;53.282;9.864;2024-01-07T08:05:09;101888.75;;;-1.81;91.75
77216;BME280;66210;53.282;9.864;2024-01-07T08:07:35;101890.88;;;-1.84;91.63
77216;BME280;66210;53.282;9.864;2024-01-07T08:10:02;101901.91;;;-1.82;91.19
77216;BME280;66210;53.282;9.864;2024-01-07T08:12:29;101855.72;;;-2.09;90.95
77216;BME280;66210;53.282;9.864;2024-01-07T08:14:56;101890.75;;;-1.93;91.36
77216;BME280;66210;53.282;9.864;2024-01-07T08:17:22;101897.81;;;-1.89;91.38
77216;BME280;66210;53.282;9.864;2024-01-07T08:19:51;101881.28;;;-1.95;91.41
77216;BME280;66210;53.282;9.864;2024-01-07T08:22:18;101912.56;;;-1.76;91.44
77216;BME280;66210;53.282;9.864;2024-01-07T08:24:46;101910.06;;;-1.76;91.62
77216;BME280;66210;53.282;9.864;2024-01-07T08:27:12;101873.66;;;-1.97;91.23
77216;BME280;66210;53.282;9.864;2024-01-07T08:29:42;101925.72;;;-1.70;90.97
77216;BME280;66210;53.282;9.864;2024-01-07T08:32:10;101912.22;;;-1.79;91.31
77216;BME280;66210;53.282;9.864;2024-01-07T08:34:39;101924.16;;;-1.76;90.96
77216;BME280;66210;53.282;9.864;2024-01-07T08:37:09;101938.00;;;-1.71;91.17
77216;BME280;66210;53.282;9.864;2024-01-07T08:39:36;101885.06;;;-1.99;91.21
77216;BME280;66210;53.282;9.864;2024-01-07T08:42:03;101903.72;;;-1.88;90.78
77216;BME280;66210;53.282;9.864;2024-01-07T08:44:31;101920.25;;;-1.81;90.93
77216;BME280;66210;53.282;9.864;2024-01-07T08:46:57;101925.56;;;-1.78;91.12
77216;BME280;66210;53.282;9.864;2024-01-07T08:49:31;101917.06;;;-1.88;90.88
77216;BME280;66210;53.282;9.864;2024-01-07T08:52:00;101949.59;;;-1.72;90.97
77216;BME280;66210;53.282;9.864;2024-01-07T08:54:27;101924.72;;;-1.86;90.82
77216;BME280;66210;53.282;9.864;2024-01-07T08:56:54;101945.28;;;-1.73;91.09
77216;BME280;66210;53.282;9.864;2024-01-07T08:59:20;101942.47;;;-1.76;90.72
77216;BME280;66210;53.282;9.864;2024-01-07T09:01:47;101946.94;;;-1.80;90.88
77216;BME280;66210;53.282;9.864;2024-01-07T09:04:14;101943.19;;;-1.84;91.23
77216;BME280;66210;53.282;9.864;2024-01-07T09:06:46;101971.66;;;-1.75;91.06
77216;BME280;66210;53.282;9.864;2024-01-07T09:09:13;101955.81;;;-1.82;91.35
77216;BME280;66210;53.282;9.864;2024-01-07T09:11:39;101967.56;;;-1.74;91.08
77216;BME280;66210;53.282;9.864;2024-01-07T09:14:06;101952.63;;;-1.81;91.49
77216;BME280;66210;53.282;9.864;2024-01-07T09:16:33;101977.53;;;-1.74;91.69
77216;BME280;66210;53.282;9.864;2024-01-07T09:18:59;101976.09;;;-1.72;91.69
77216;BME280;66210;53.282;9.864;2024-01-07T09:21:26;101978.75;;;-1.71;91.77
77216;BME280;66210;53.282;9.864;2024-01-07T09:23:53;101991.22;;;-1.71;92.10
77216;BME280;66210;53.282;9.864;2024-01-07T09:26:20;101961.69;;;-1.82;92.07
77216;BME280;66210;53.282;9.864;2024-01-07T09:28:47;101960.47;;;-1.85;92.41
77216;BME280;66210;53.282;9.864;2024-01-07T09:31:13;101967.91;;;-1.78;92.52
77216;BME280;66210;53.282;9.864;2024-01-07T09:33:42;101987.47;;;-1.67;93.01
77216;BME280;66210;53.282;9.864;2024-01-07T09:36:09;101998.50;;;-1.65;93.34
77216;BME280;66210;53.282;9.864;2024-01-07T09:38:54;102002.06;;;-1.63;93.22
77216;BME280;66210;53.282;9.864;2024-01-07T09:41:21;101983.72;;;-1.71;93.69
77216;BME280;66210;53.282;9.864;2024-01-07T09:43:48;101967.03;;;-1.79;93.82
77216;BME280;66210;53.282;9.864;2024-01-07T09:46:15;102001.72;;;-1.59;94.08
77216;BME280;66210;53.282;9.864;2024-01-07T09:48:42;102001.19;;;-1.56;94.01
77216;BME280;66210;53.282;9.864;2024-01-07T09:51:10;102003.66;;;-1.56;93.91
77216;BME280;66210;53.282;9.864;2024-01-07T09:53:39;102002.06;;;-1.56;94.39
77216;BME280;66210;53.282;9.864;2024-01-07T09:56:27;102006.31;;;-1.55;94.34
77216;BME280;66210;53.282;9.864;2024-01-07T09:58:55;101991.75;;;-1.59;94.20
77216;BME280;66210;53.282;9.864;2024-01-07T10:01:22;101983.75;;;-1.63;94.15
77216;BME280;66210;53.282;9.864;2024-01-07T10:03:50;102007.75;;;-1.50;94.54
77216;BME280;66210;53.282;9.864;2024-01-07T10:06:18;101988.53;;;-1.65;94.52
77216;BME280;66210;53.282;9.864;2024-01-07T10:08:46;101996.53;;;-1.60;94.58
77216;BME280;66210;53.282;9.864;2024-01-07T10:11:15;102004.72;;;-1.47;95.09
77216;BME280;66210;53.282;9.864;2024-01-07T10:13:45;102015.38;;;-1.41;94.84
77216;BME280;66210;53.282;9.864;2024-01-07T10:16:14;102017.16;;;-1.40;95.24
77216;BME280;66210;53.282;9.864;2024-01-07T10:18:41;101995.97;;;-1.51;94.79
77216;BME280;66210;53.282;9.864;2024-01-07T10:21:08;102018.75;;;-1.40;94.74
77216;BME280;66210;53.282;9.864;2024-01-07T10:23:35;102007.53;;;-1.44;94.90
77216;BME280;66210;53.282;9.864;2024-01-07T10:26:02;102020.91;;;-1.36;94.63
77216;BME280;66210;53.282;9.864;2024-01-07T10:28:41;102025.69;;;-1.31;95.02
77216;BME280;66210;53.282;9.864;2024-01-07T10:31:07;102012.88;;;-1.34;95.26
77216;BME280;66210;53.282;9.864;2024-01-07T10:33:34;102020.50;;;-1.25;95.03
77216;BME280;66210;53.282;9.864;2024-01-07T10:36:07;102018.91;;;-1.24;94.55
77216;BME280;66210;53.282;9.864;2024-01-07T10:38:34;102015.84;;;-1.22;94.81
77216;BME280;66210;53.282;9.864;2024-01-07T10:41:01;101989.72;;;-1.40;94.52
77216;BME280;66210;53.282;9.864;2024-01-07T10:43:29;102013.03;;;-1.25;94.42
77216;BME280;66210;53.282;9.864;2024-01-07T10:46:00;102019.97;;;-1.22;94.13
77216;BME280;66210;53.282;9.864;2024-01-07T10:48:30;102027.22;;;-1.17;94.37
77216;BME280;66210;53.282;9.864;2024-01-07T10:51:00;102026.72;;;-1.14;94.19
77216;BME280;66210;53.282;9.864;2024-01-07T10:53:28;102023.69;;;-1.12;94.73
77216;BME280;66210;53.282;9.864;2024-01-07T10:56:08;102018.88;;;-1.17;94.27
77216;BME280;66210;53.282;9.864;2024-01-07T10:58:39;102002.88;;;-1.27;93.87
77216;BME280;66210;53.282;9.864;2024-01-07T11:01:06;102002.88;;;-1.27;93.90
77216;BME280;66210;53.282;9.864;2024-01-07T11:03:51;102028.16;;;-1.16;93.49
77216;BME280;66210;53.282;9.864;2024-01-07T11:06:46;102034.91;;;-1.15;93.61
77216;BME280;66210;53.282;9.864;2024-01-07T11:10:37;102031.53;;;-1.16;92.92
77216;BME280;66210;53.282;9.864;2024-01-07T11:12:32;102020.47;;;-1.18;93.62
77216;BME280;66210;53.282;9.864;2024-01-07T11:14:59;102030.25;;;-1.12;93.31
77216;BME280;66210;53.282;9.864;2024-01-07T11:20:02;102016.75;;;-1.14;92.72
77216;BME280;66210;53.282;9.864;2024-01-07T11:22:29;102021.53;;;-1.09;93.10
77216;BME280;66210;53.282;9.864;2024-01-07T11:24:58;101994.31;;;-1.29;93.08
77216;BME280;66210;53.282;9.864;2024-01-07T11:27:31;102022.75;;;-1.12;92.12
77216;BME280;66210;53.282;9.864;2024-01-07T11:30:03;102018.31;;;-1.15;92.49
77216;BME280;66210;53.282;9.864;2024-01-07T11:32:34;102023.13;;;-1.09;92.72
77216;BME280;66210;53.282;9.864;2024-01-07T11:35:02;102016.75;;;-1.14;92.81
77216;BME280;66210;53.282;9.864;2024-01-07T11:37:30;102026.16;;;-1.05;92.66
77216;BME280;66210;53.282;9.864;2024-01-07T11:39:57;102019.03;;;-1.09;91.82
77216;BME280;66210;53.282;9.864;2024-01-07T11:42:24;102032.72;;;-0.98;92.25
77216;BME280;66210;53.282;9.864;2024-01-07T11:44:54;102012.97;;;-1.11;90.56
77216;BME280;66210;53.282;9.864;2024-01-07T11:47:22;102032.91;;;-0.96;90.40
77216;BME280;66210;53.282;9.864;2024-01-07T11:49:50;102040.16;;;-0.91;91.16
77216;BME280;66210;53.282;9.864;2024-01-07T11:52:17;102031.78;;;-0.91;90.73
77216;BME280;66210;53.282;9.864;2024-01-07T11:54:45;102013.63;;;-0.97;90.70
77216;BME280;66210;53.282;9.864;2024-01-07T11:57:13;102009.56;;;-1.04;88.63
77216;BME280;66210;53.282;9.864;2024-01-07T11:59:40;102010.97;;;-0.99;89.20
77216;BME280;66210;53.282;9.864;2024-01-07T12:02:11;102014.88;;;-0.94;89.62
77216;BME280;66210;53.282;9.864;2024-01-07T12:04:37;102034.44;;;-0.82;89.02
77216;BME280;66210;53.282;9.864;2024-01-07T12:07:04;102047.44;;;-0.78;89.19
77216;BME280;66210;53.282;9.864;2024-01-07T12:09:31;102042.06;;;-0.74;89.14
77216;BME280;66210;53.282;9.864;2024-01-07T12:11:59;102040.63;;;-0.72;88.01
77216;BME280;66210;53.282;9.864;2024-01-07T12:14:26;102036.69;;;-0.70;87.93
77216;BME280;66210;53.282;9.864;2024-01-07T12:16:53;102039.03;;;-0.71;87.78
77216;BME280;66210;53.282;9.864;2024-01-07T12:19:19;102035.47;;;-0.73;87.76
77216;BME280;66210;53.282;9.864;2024-01-07T12:21:49;102023.53;;;-0.83;87.96
77216;BME280;66210;53.282;9.864;2024-01-07T12:24:18;102022.47;;;-0.78;88.13
77216;BME280;66210;53.282;9.864;2024-01-07T12:26:45;102027.97;;;-0.73;88.29
77216;BME280;66210;53.282;9.864;2024-01-07T12:29:12;102039.53;;;-0.67;88.06
77216;BME280;66210;53.282;9.864;2024-01-07T12:31:39;102040.22;;;-0.68;87.15
77216;BME280;66210;53.282;9.864;2024-01-07T12:34:07;102009.13;;;-0.78;87.71
77216;BME280;66210;53.282;9.864;2024-01-07T12:36:34;102024.75;;;-0.72;87.90
77216;BME280;66210;53.282;9.864;2024-01-07T12:39:01;102033.66;;;-0.74;86.47
77216;BME280;66210;53.282;9.864;2024-01-07T12:41:28;102037.59;;;-0.69;87.39
77216;BME280;66210;53.282;9.864;2024-01-07T12:43:55;102042.72;;;-0.68;86.91
77216;BME280;66210;53.282;9.864;2024-01-07T12:46:22;102047.94;;;-0.73;85.56
77216;BME280;66210;53.282;9.864;2024-01-07T12:48:49;102044.06;;;-0.78;86.49
77216;BME280;66210;53.282;9.864;2024-01-07T12:51:16;102023.75;;;-0.89;86.82
77216;BME280;66210;53.282;9.864;2024-01-07T12:53:46;102016.66;;;-0.93;86.25
77216;BME280;66210;53.282;9.864;2024-01-07T12:56:13;102042.06;;;-0.81;86.63